AFL1736 ULLI-UUWW
Flight info
| Callsign | AFL1736 |
|---|---|
| Flight time | 1h 10m |
| Altitude | 41000 |
| Route | SUGIN1B SUGIN T873 NIRGI T73 DESUD T834 ADOKU/K0922F290 T834 BEKIP BEKIP3B |
| Aircraft | A359/H-SDE2E3GHIJ3J4J5LM1ORWXY/LB1D1 |
Departure
| Time | 2026-05-06 16:42 |
|---|---|
| Airport | Pulkovo Airport (ULLI) |
Arrival
| Time | 2026-05-06 17:52 |
|---|---|
| Airport | Vnukovo International Airport (UUWW) |
| Time | Latitude | Longitude | Altitude | Speed | Heading |
|---|---|---|---|---|---|
| 2026-05-06 15:39 | 59.79655 | 30.25867 | 95 ft | 0 kts | 286° |
| 2026-05-06 15:41 | 59.79655 | 30.25868 | 95 ft | 0 kts | 286° |
| 2026-05-06 16:25 | 59.79653 | 30.25878 | 95 ft | 2 kts | 285° |
| 2026-05-06 16:25 | 59.79650 | 30.25903 | 95 ft | 2 kts | 283° |
| 2026-05-06 16:26 | 59.79646 | 30.25932 | 95 ft | 2 kts | 283° |
| 2026-05-06 16:26 | 59.79643 | 30.25961 | 95 ft | 2 kts | 284° |
| 2026-05-06 16:26 | 59.79639 | 30.25990 | 95 ft | 2 kts | 284° |
| 2026-05-06 16:26 | 59.79635 | 30.26019 | 95 ft | 2 kts | 283° |
| 2026-05-06 16:27 | 59.79632 | 30.26047 | 94 ft | 2 kts | 284° |
| 2026-05-06 16:27 | 59.79628 | 30.26076 | 94 ft | 2 kts | 284° |
| 2026-05-06 16:27 | 59.79624 | 30.26106 | 93 ft | 2 kts | 284° |
| 2026-05-06 16:27 | 59.79621 | 30.26134 | 93 ft | 2 kts | 284° |
| 2026-05-06 16:28 | 59.79617 | 30.26163 | 92 ft | 2 kts | 284° |
| 2026-05-06 16:28 | 59.79616 | 30.26170 | 92 ft | 0 kts | 284° |
| 2026-05-06 16:28 | 59.79615 | 30.26179 | 92 ft | 0 kts | 285° |
| 2026-05-06 16:30 | 59.79615 | 30.26178 | 92 ft | 0 kts | 285° |
| 2026-05-06 16:30 | 59.79618 | 30.26156 | 92 ft | 2 kts | 285° |
| 2026-05-06 16:31 | 59.79622 | 30.26127 | 93 ft | 1 kts | 285° |
| 2026-05-06 16:31 | 59.79625 | 30.26104 | 93 ft | 1 kts | 284° |
| 2026-05-06 16:31 | 59.79624 | 30.26074 | 94 ft | 5 kts | 253° |
| 2026-05-06 16:31 | 59.79589 | 30.26009 | 94 ft | 8 kts | 207° |
| 2026-05-06 16:32 | 59.79556 | 30.26013 | 93 ft | 5 kts | 134° |
| 2026-05-06 16:32 | 59.79547 | 30.26045 | 93 ft | 2 kts | 110° |
| 2026-05-06 16:32 | 59.79539 | 30.26090 | 93 ft | 0 kts | 108° |
| 2026-05-06 16:33 | 59.79527 | 30.26167 | 92 ft | 13 kts | 105° |
| 2026-05-06 16:33 | 59.79497 | 30.26367 | 92 ft | 14 kts | 107° |
| 2026-05-06 16:33 | 59.79465 | 30.26579 | 92 ft | 17 kts | 106° |
| 2026-05-06 16:34 | 59.79384 | 30.27128 | 94 ft | 23 kts | 106° |
| 2026-05-06 16:34 | 59.79336 | 30.27449 | 95 ft | 25 kts | 106° |
| 2026-05-06 16:34 | 59.79285 | 30.27808 | 95 ft | 28 kts | 104° |
| 2026-05-06 16:34 | 59.79249 | 30.28042 | 95 ft | 5 kts | 107° |
| 2026-05-06 16:35 | 59.79247 | 30.28051 | 95 ft | 0 kts | 107° |
| 2026-05-06 16:36 | 59.79246 | 30.28056 | 95 ft | 1 kts | 107° |
| 2026-05-06 16:36 | 59.79227 | 30.28157 | 94 ft | 2 kts | 122° |
| 2026-05-06 16:38 | 59.79226 | 30.28159 | 94 ft | 1 kts | 123° |
| 2026-05-06 16:38 | 59.79212 | 30.28192 | 94 ft | 4 kts | 136° |
| 2026-05-06 16:38 | 59.79184 | 30.28224 | 95 ft | 0 kts | 163° |
| 2026-05-06 16:40 | 59.79173 | 30.28231 | 95 ft | 3 kts | 163° |
| 2026-05-06 16:40 | 59.79126 | 30.28258 | 95 ft | 12 kts | 165° |
| 2026-05-06 16:40 | 59.79054 | 30.28233 | 95 ft | 9 kts | 234° |
| 2026-05-06 16:41 | 59.79054 | 30.28151 | 95 ft | 0 kts | 285° |
| 2026-05-06 16:41 | 59.79057 | 30.28132 | 95 ft | 0 kts | 285° |
| 2026-05-06 16:41 | 59.79086 | 30.27937 | 95 ft | 50 kts | 288° |
| 2026-05-06 16:42 | 59.79254 | 30.26790 | 95 ft | 125 kts | 287° |
| 2026-05-06 16:42 | 59.79562 | 30.24755 | 413 ft | 162 kts | 289° |
| 2026-05-06 16:42 | 59.79870 | 30.22671 | 1357 ft | 159 kts | 288° |
| 2026-05-06 16:42 | 59.80161 | 30.20651 | 2235 ft | 159 kts | 287° |
| 2026-05-06 16:43 | 59.80475 | 30.18482 | 2867 ft | 174 kts | 287° |
| 2026-05-06 16:43 | 59.80823 | 30.16093 | 3482 ft | 191 kts | 287° |
| 2026-05-06 16:43 | 59.81204 | 30.13487 | 4128 ft | 209 kts | 287° |
| 2026-05-06 16:43 | 59.81626 | 30.10602 | 4859 ft | 226 kts | 288° |
| 2026-05-06 16:44 | 59.82072 | 30.07561 | 5752 ft | 236 kts | 288° |
| 2026-05-06 16:44 | 59.82520 | 30.04494 | 6757 ft | 240 kts | 288° |
| 2026-05-06 16:44 | 59.82859 | 30.01360 | 7781 ft | 244 kts | 270° |
| 2026-05-06 16:44 | 59.82392 | 29.98145 | 8917 ft | 246 kts | 239° |
| 2026-05-06 16:45 | 59.81195 | 29.95865 | 10048 ft | 249 kts | 212° |
| 2026-05-06 16:45 | 59.79584 | 29.94742 | 11099 ft | 253 kts | 201° |
| 2026-05-06 16:45 | 59.77922 | 29.93813 | 12037 ft | 256 kts | 203° |
| 2026-05-06 16:45 | 59.76188 | 29.93014 | 12948 ft | 267 kts | 192° |
| 2026-05-06 16:46 | 59.74271 | 29.93719 | 13624 ft | 300 kts | 162° |
| 2026-05-06 16:46 | 59.72652 | 29.96331 | 14446 ft | 324 kts | 132° |
| 2026-05-06 16:46 | 59.71674 | 30.00454 | 15249 ft | 338 kts | 111° |
| 2026-05-06 16:46 | 59.71040 | 30.05044 | 15949 ft | 349 kts | 108° |
| 2026-05-06 16:47 | 59.70464 | 30.09691 | 16686 ft | 356 kts | 108° |
| 2026-05-06 16:47 | 59.69890 | 30.14472 | 17538 ft | 359 kts | 104° |
| 2026-05-06 16:47 | 59.69551 | 30.19391 | 18319 ft | 366 kts | 96° |
| 2026-05-06 16:47 | 59.69434 | 30.24484 | 19072 ft | 372 kts | 94° |
| 2026-05-06 16:48 | 59.69376 | 30.29623 | 19778 ft | 378 kts | 94° |
| 2026-05-06 16:48 | 59.69192 | 30.34762 | 20441 ft | 383 kts | 100° |
| 2026-05-06 16:48 | 59.68769 | 30.39968 | 21164 ft | 385 kts | 105° |
| 2026-05-06 16:48 | 59.68226 | 30.45134 | 21894 ft | 388 kts | 107° |
| 2026-05-06 16:49 | 59.67654 | 30.50257 | 22574 ft | 393 kts | 107° |
| 2026-05-06 16:49 | 59.67062 | 30.55582 | 23221 ft | 398 kts | 107° |
| 2026-05-06 16:49 | 59.66484 | 30.60846 | 23845 ft | 404 kts | 107° |
| 2026-05-06 16:49 | 59.65888 | 30.66358 | 24506 ft | 409 kts | 107° |
| 2026-05-06 16:50 | 59.65352 | 30.71859 | 25139 ft | 415 kts | 104° |
| 2026-05-06 16:50 | 59.64880 | 30.77539 | 25797 ft | 419 kts | 103° |
| 2026-05-06 16:50 | 59.64418 | 30.83237 | 26398 ft | 423 kts | 104° |
| 2026-05-06 16:50 | 59.63952 | 30.88984 | 26978 ft | 428 kts | 103° |
| 2026-05-06 16:51 | 59.63482 | 30.94719 | 27550 ft | 432 kts | 104° |
| 2026-05-06 16:51 | 59.62988 | 31.00656 | 28118 ft | 436 kts | 104° |
| 2026-05-06 16:51 | 59.62491 | 31.06530 | 28666 ft | 439 kts | 104° |
| 2026-05-06 16:51 | 59.61985 | 31.12383 | 29217 ft | 442 kts | 103° |
| 2026-05-06 16:52 | 59.61472 | 31.18448 | 29759 ft | 445 kts | 103° |
| 2026-05-06 16:52 | 59.60972 | 31.24394 | 30263 ft | 448 kts | 103° |
| 2026-05-06 16:52 | 59.60449 | 31.30512 | 30751 ft | 451 kts | 103° |
| 2026-05-06 16:52 | 59.59918 | 31.36641 | 31178 ft | 456 kts | 103° |
| 2026-05-06 16:53 | 59.59384 | 31.42767 | 31650 ft | 458 kts | 103° |
| 2026-05-06 16:53 | 59.58841 | 31.48918 | 32131 ft | 460 kts | 103° |
| 2026-05-06 16:53 | 59.58292 | 31.55085 | 32580 ft | 463 kts | 103° |
| 2026-05-06 16:53 | 59.57740 | 31.61304 | 33002 ft | 466 kts | 103° |
| 2026-05-06 16:54 | 59.57178 | 31.67603 | 33448 ft | 468 kts | 104° |
| 2026-05-06 16:54 | 59.56617 | 31.73860 | 33882 ft | 469 kts | 103° |
| 2026-05-06 16:54 | 59.56045 | 31.80150 | 34269 ft | 472 kts | 104° |
| 2026-05-06 16:54 | 59.55470 | 31.86472 | 34650 ft | 474 kts | 103° |
| 2026-05-06 16:55 | 59.54892 | 31.92782 | 35000 ft | 476 kts | 103° |
| 2026-05-06 16:55 | 59.54213 | 31.99275 | 35266 ft | 476 kts | 109° |
| 2026-05-06 16:55 | 59.53210 | 32.05362 | 35529 ft | 472 kts | 117° |
| 2026-05-06 16:55 | 59.51825 | 32.11168 | 35780 ft | 466 kts | 126° |
| 2026-05-06 16:56 | 59.50106 | 32.16489 | 36009 ft | 459 kts | 133° |
| 2026-05-06 16:56 | 59.48093 | 32.21281 | 36243 ft | 452 kts | 141° |
| 2026-05-06 16:56 | 59.45916 | 32.25596 | 36492 ft | 451 kts | 143° |
| 2026-05-06 16:56 | 59.43670 | 32.29875 | 36786 ft | 452 kts | 143° |
| 2026-05-06 16:57 | 59.41415 | 32.34158 | 37073 ft | 453 kts | 143° |
| 2026-05-06 16:57 | 59.39152 | 32.38483 | 37369 ft | 455 kts | 142° |
| 2026-05-06 16:57 | 59.36908 | 32.42798 | 37622 ft | 456 kts | 142° |
| 2026-05-06 16:57 | 59.34648 | 32.47164 | 37875 ft | 458 kts | 141° |
| 2026-05-06 16:58 | 59.32408 | 32.51489 | 38090 ft | 461 kts | 141° |
| 2026-05-06 16:58 | 59.30119 | 32.55912 | 38325 ft | 462 kts | 141° |
| 2026-05-06 16:58 | 59.27844 | 32.60294 | 38571 ft | 463 kts | 141° |
| 2026-05-06 16:58 | 59.25552 | 32.64701 | 38802 ft | 465 kts | 141° |
| 2026-05-06 16:59 | 59.23280 | 32.69073 | 39016 ft | 466 kts | 141° |
| 2026-05-06 16:59 | 59.20958 | 32.73543 | 39237 ft | 466 kts | 141° |
| 2026-05-06 16:59 | 59.18671 | 32.77929 | 39446 ft | 468 kts | 141° |
| 2026-05-06 16:59 | 59.16354 | 32.82356 | 39627 ft | 469 kts | 141° |
| 2026-05-06 17:00 | 59.14008 | 32.86824 | 39809 ft | 471 kts | 141° |
| 2026-05-06 17:00 | 59.11679 | 32.91250 | 39995 ft | 471 kts | 141° |
| 2026-05-06 17:00 | 59.09326 | 32.95713 | 40242 ft | 471 kts | 141° |
| 2026-05-06 17:00 | 59.06998 | 33.00116 | 40462 ft | 471 kts | 141° |
| 2026-05-06 17:01 | 59.04669 | 33.04514 | 40658 ft | 471 kts | 141° |
| 2026-05-06 17:01 | 59.02340 | 33.08895 | 40823 ft | 472 kts | 141° |
| 2026-05-06 17:01 | 58.99983 | 33.13322 | 40928 ft | 475 kts | 141° |
| 2026-05-06 17:02 | 58.95212 | 33.22248 | 40953 ft | 485 kts | 141° |
| 2026-05-06 17:02 | 58.90346 | 33.31335 | 40953 ft | 495 kts | 140° |
| 2026-05-06 17:03 | 58.85386 | 33.40547 | 40958 ft | 504 kts | 141° |
| 2026-05-06 17:03 | 58.80315 | 33.49907 | 40938 ft | 513 kts | 140° |
| 2026-05-06 17:04 | 58.75152 | 33.59410 | 40957 ft | 519 kts | 140° |
| 2026-05-06 17:04 | 58.69957 | 33.68947 | 40955 ft | 524 kts | 141° |
| 2026-05-06 17:05 | 58.64680 | 33.78622 | 40950 ft | 529 kts | 141° |
| 2026-05-06 17:05 | 58.59408 | 33.88224 | 40934 ft | 532 kts | 141° |
| 2026-05-06 17:06 | 58.54046 | 33.97935 | 40959 ft | 534 kts | 141° |
| 2026-05-06 17:06 | 58.48644 | 34.07675 | 40943 ft | 535 kts | 141° |
| 2026-05-06 17:07 | 58.43229 | 34.17388 | 40930 ft | 535 kts | 141° |
| 2026-05-06 17:07 | 58.37858 | 34.26976 | 40958 ft | 535 kts | 141° |
| 2026-05-06 17:08 | 58.32453 | 34.36591 | 40964 ft | 535 kts | 141° |
| 2026-05-06 17:08 | 58.27036 | 34.46197 | 40954 ft | 535 kts | 141° |
| 2026-05-06 17:09 | 58.21620 | 34.55770 | 40958 ft | 534 kts | 141° |
| 2026-05-06 17:09 | 58.16162 | 34.64945 | 40931 ft | 522 kts | 144° |
| 2026-05-06 17:09 | 58.13372 | 34.69230 | 40956 ft | 509 kts | 146° |
| 2026-05-06 17:10 | 58.10671 | 34.73415 | 40943 ft | 497 kts | 145° |
| 2026-05-06 17:10 | 58.08073 | 34.77480 | 40953 ft | 486 kts | 145° |
| 2026-05-06 17:10 | 58.05476 | 34.81555 | 40937 ft | 485 kts | 145° |
| 2026-05-06 17:11 | 58.00315 | 34.89639 | 40928 ft | 482 kts | 145° |
| 2026-05-06 17:11 | 57.95276 | 34.97534 | 40939 ft | 469 kts | 145° |
| 2026-05-06 17:12 | 57.90311 | 35.05271 | 40927 ft | 455 kts | 145° |
| 2026-05-06 17:12 | 57.87939 | 35.08962 | 40918 ft | 441 kts | 146° |
| 2026-05-06 17:12 | 57.85619 | 35.12549 | 40922 ft | 428 kts | 146° |
| 2026-05-06 17:12 | 57.83345 | 35.16056 | 40921 ft | 417 kts | 146° |
| 2026-05-06 17:13 | 57.81147 | 35.19438 | 40926 ft | 415 kts | 146° |
| 2026-05-06 17:13 | 57.76715 | 35.26254 | 40921 ft | 415 kts | 146° |
| 2026-05-06 17:14 | 57.72249 | 35.33114 | 40919 ft | 420 kts | 146° |
| 2026-05-06 17:14 | 57.67733 | 35.40038 | 40929 ft | 420 kts | 145° |
| 2026-05-06 17:15 | 57.63243 | 35.46895 | 40918 ft | 420 kts | 147° |
| 2026-05-06 17:15 | 57.58331 | 35.52420 | 40912 ft | 408 kts | 162° |
| 2026-05-06 17:16 | 57.53052 | 35.55762 | 40895 ft | 404 kts | 168° |
| 2026-05-06 17:16 | 57.47694 | 35.58821 | 40680 ft | 405 kts | 168° |
| 2026-05-06 17:16 | 57.44989 | 35.60377 | 40532 ft | 405 kts | 168° |
| 2026-05-06 17:17 | 57.42312 | 35.61924 | 40374 ft | 405 kts | 168° |
| 2026-05-06 17:17 | 57.39635 | 35.63475 | 40234 ft | 405 kts | 168° |
| 2026-05-06 17:17 | 57.36971 | 35.65015 | 40064 ft | 405 kts | 169° |
| 2026-05-06 17:17 | 57.34300 | 35.66568 | 39889 ft | 405 kts | 169° |
| 2026-05-06 17:18 | 57.31627 | 35.68277 | 39692 ft | 414 kts | 164° |
| 2026-05-06 17:18 | 57.28975 | 35.70560 | 39464 ft | 433 kts | 157° |
| 2026-05-06 17:18 | 57.26394 | 35.73469 | 39209 ft | 447 kts | 151° |
| 2026-05-06 17:18 | 57.23829 | 35.76754 | 38942 ft | 453 kts | 150° |
| 2026-05-06 17:19 | 57.21262 | 35.80107 | 38670 ft | 455 kts | 150° |
| 2026-05-06 17:19 | 57.18688 | 35.83462 | 38398 ft | 456 kts | 150° |
| 2026-05-06 17:19 | 57.16132 | 35.86776 | 38139 ft | 457 kts | 150° |
| 2026-05-06 17:19 | 57.13537 | 35.90122 | 37859 ft | 456 kts | 150° |
| 2026-05-06 17:20 | 57.10934 | 35.93459 | 37591 ft | 458 kts | 150° |
| 2026-05-06 17:20 | 57.08349 | 35.96765 | 37332 ft | 458 kts | 150° |
| 2026-05-06 17:20 | 57.05716 | 36.00122 | 37074 ft | 458 kts | 150° |
| 2026-05-06 17:20 | 57.03111 | 36.03437 | 36771 ft | 459 kts | 150° |
| 2026-05-06 17:21 | 57.00494 | 36.06763 | 36534 ft | 460 kts | 150° |
| 2026-05-06 17:21 | 56.97888 | 36.10068 | 36301 ft | 461 kts | 150° |
| 2026-05-06 17:21 | 56.95246 | 36.13410 | 36062 ft | 459 kts | 150° |
| 2026-05-06 17:21 | 56.92655 | 36.16685 | 35825 ft | 453 kts | 150° |
| 2026-05-06 17:22 | 56.90067 | 36.19947 | 35590 ft | 451 kts | 150° |
| 2026-05-06 17:22 | 56.87524 | 36.23134 | 35354 ft | 451 kts | 150° |
| 2026-05-06 17:22 | 56.84906 | 36.26409 | 35110 ft | 452 kts | 150° |
| 2026-05-06 17:22 | 56.82343 | 36.29690 | 34799 ft | 449 kts | 148° |
| 2026-05-06 17:23 | 56.79916 | 36.33120 | 34290 ft | 449 kts | 144° |
| 2026-05-06 17:23 | 56.77517 | 36.36736 | 33786 ft | 447 kts | 144° |
| 2026-05-06 17:23 | 56.75152 | 36.40286 | 33290 ft | 445 kts | 144° |
| 2026-05-06 17:23 | 56.72768 | 36.43849 | 32748 ft | 438 kts | 144° |
| 2026-05-06 17:24 | 56.70486 | 36.47261 | 32249 ft | 421 kts | 144° |
| 2026-05-06 17:24 | 56.68256 | 36.50582 | 31777 ft | 418 kts | 144° |
| 2026-05-06 17:24 | 56.65998 | 36.53922 | 31264 ft | 417 kts | 144° |
| 2026-05-06 17:24 | 56.63784 | 36.57200 | 30742 ft | 402 kts | 144° |
| 2026-05-06 17:25 | 56.61670 | 36.60329 | 30253 ft | 390 kts | 144° |
| 2026-05-06 17:25 | 56.59518 | 36.63235 | 29764 ft | 387 kts | 153° |
| 2026-05-06 17:25 | 56.57145 | 36.65471 | 29261 ft | 382 kts | 163° |
| 2026-05-06 17:25 | 56.54642 | 36.66964 | 28764 ft | 376 kts | 171° |
| 2026-05-06 17:26 | 56.52119 | 36.68082 | 28272 ft | 375 kts | 172° |
| 2026-05-06 17:26 | 56.49595 | 36.69142 | 27777 ft | 374 kts | 173° |
| 2026-05-06 17:26 | 56.47062 | 36.70206 | 27281 ft | 373 kts | 172° |
| 2026-05-06 17:26 | 56.44552 | 36.71268 | 26791 ft | 373 kts | 172° |
| 2026-05-06 17:27 | 56.42047 | 36.72337 | 26302 ft | 372 kts | 172° |
| 2026-05-06 17:27 | 56.39535 | 36.73412 | 25738 ft | 373 kts | 172° |
| 2026-05-06 17:27 | 56.37020 | 36.74494 | 25171 ft | 375 kts | 172° |
| 2026-05-06 17:27 | 56.34468 | 36.75589 | 24594 ft | 375 kts | 172° |
| 2026-05-06 17:28 | 56.31989 | 36.76655 | 23810 ft | 370 kts | 172° |
| 2026-05-06 17:28 | 56.29501 | 36.77733 | 22874 ft | 367 kts | 172° |
| 2026-05-06 17:28 | 56.26976 | 36.78827 | 21959 ft | 375 kts | 172° |
| 2026-05-06 17:28 | 56.24484 | 36.79903 | 21085 ft | 377 kts | 171° |
| 2026-05-06 17:29 | 56.21892 | 36.81018 | 20267 ft | 387 kts | 171° |
| 2026-05-06 17:29 | 56.19286 | 36.82142 | 19604 ft | 387 kts | 171° |
| 2026-05-06 17:29 | 56.16744 | 36.83242 | 18977 ft | 379 kts | 171° |
| 2026-05-06 17:29 | 56.14192 | 36.84343 | 18361 ft | 372 kts | 171° |
| 2026-05-06 17:30 | 56.11718 | 36.85408 | 17856 ft | 363 kts | 172° |
| 2026-05-06 17:30 | 56.09327 | 36.86430 | 17341 ft | 356 kts | 171° |
| 2026-05-06 17:30 | 56.06917 | 36.87453 | 16933 ft | 356 kts | 171° |
| 2026-05-06 17:30 | 56.04551 | 36.88457 | 16900 ft | 352 kts | 171° |
| 2026-05-06 17:31 | 56.02174 | 36.89465 | 16887 ft | 354 kts | 171° |
| 2026-05-06 17:31 | 55.99762 | 36.90489 | 16857 ft | 354 kts | 171° |
| 2026-05-06 17:31 | 55.97393 | 36.91498 | 16888 ft | 354 kts | 171° |
| 2026-05-06 17:31 | 55.95026 | 36.92464 | 16871 ft | 353 kts | 173° |
| 2026-05-06 17:32 | 55.92580 | 36.93193 | 16856 ft | 351 kts | 177° |
| 2026-05-06 17:32 | 55.90184 | 36.93610 | 16857 ft | 349 kts | 180° |
| 2026-05-06 17:32 | 55.87752 | 36.93935 | 16546 ft | 348 kts | 180° |
| 2026-05-06 17:32 | 55.85358 | 36.94255 | 16239 ft | 345 kts | 180° |
| 2026-05-06 17:33 | 55.83013 | 36.94570 | 15905 ft | 341 kts | 180° |
| 2026-05-06 17:33 | 55.80636 | 36.94890 | 15645 ft | 341 kts | 180° |
| 2026-05-06 17:33 | 55.78289 | 36.95208 | 15330 ft | 340 kts | 179° |
| 2026-05-06 17:33 | 55.75937 | 36.95531 | 15045 ft | 338 kts | 179° |
| 2026-05-06 17:34 | 55.73631 | 36.95887 | 14713 ft | 338 kts | 177° |
| 2026-05-06 17:34 | 55.71313 | 36.96484 | 14411 ft | 337 kts | 175° |
| 2026-05-06 17:34 | 55.69005 | 36.97128 | 14135 ft | 336 kts | 175° |
| 2026-05-06 17:34 | 55.66714 | 36.97769 | 13817 ft | 334 kts | 175° |
| 2026-05-06 17:35 | 55.64429 | 36.98407 | 13533 ft | 333 kts | 175° |
| 2026-05-06 17:35 | 55.62144 | 36.99044 | 13146 ft | 331 kts | 175° |
| 2026-05-06 17:35 | 55.59875 | 36.99562 | 12783 ft | 328 kts | 179° |
| 2026-05-06 17:36 | 55.55368 | 36.99807 | 12046 ft | 323 kts | 184° |
| 2026-05-06 17:36 | 55.53136 | 36.99804 | 11675 ft | 321 kts | 184° |
| 2026-05-06 17:36 | 55.50901 | 36.99793 | 11196 ft | 322 kts | 184° |
| 2026-05-06 17:36 | 55.48667 | 36.99786 | 10686 ft | 323 kts | 184° |
| 2026-05-06 17:37 | 55.46437 | 36.99780 | 10219 ft | 323 kts | 185° |
| 2026-05-06 17:37 | 55.44224 | 36.99776 | 9735 ft | 324 kts | 184° |
| 2026-05-06 17:37 | 55.41925 | 36.99769 | 9258 ft | 323 kts | 185° |
| 2026-05-06 17:37 | 55.39711 | 36.99595 | 8798 ft | 322 kts | 189° |
| 2026-05-06 17:38 | 55.37523 | 36.99198 | 8508 ft | 314 kts | 191° |
| 2026-05-06 17:38 | 55.35385 | 36.98790 | 8265 ft | 306 kts | 191° |
| 2026-05-06 17:38 | 55.33292 | 36.98386 | 8022 ft | 303 kts | 191° |
| 2026-05-06 17:38 | 55.31210 | 36.97984 | 7918 ft | 303 kts | 191° |
| 2026-05-06 17:39 | 55.29136 | 36.97583 | 7912 ft | 303 kts | 190° |
| 2026-05-06 17:39 | 55.27005 | 36.97474 | 7910 ft | 307 kts | 180° |
| 2026-05-06 17:39 | 55.24868 | 36.98097 | 7908 ft | 312 kts | 169° |
| 2026-05-06 17:39 | 55.22775 | 36.99144 | 7908 ft | 313 kts | 167° |
| 2026-05-06 17:40 | 55.20710 | 37.00251 | 7907 ft | 313 kts | 167° |
| 2026-05-06 17:40 | 55.18595 | 37.01383 | 7908 ft | 313 kts | 167° |
| 2026-05-06 17:40 | 55.16561 | 37.02649 | 7882 ft | 316 kts | 154° |
| 2026-05-06 17:40 | 55.14900 | 37.05195 | 7770 ft | 321 kts | 127° |
| 2026-05-06 17:41 | 55.14020 | 37.08720 | 7664 ft | 323 kts | 101° |
| 2026-05-06 17:41 | 55.14045 | 37.12522 | 7559 ft | 321 kts | 75° |
| 2026-05-06 17:41 | 55.14942 | 37.16077 | 7478 ft | 318 kts | 57° |
| 2026-05-06 17:41 | 55.16090 | 37.19397 | 7377 ft | 318 kts | 56° |
| 2026-05-06 17:42 | 55.17233 | 37.22726 | 7270 ft | 318 kts | 57° |
| 2026-05-06 17:42 | 55.18343 | 37.26055 | 7113 ft | 318 kts | 57° |
| 2026-05-06 17:42 | 55.19425 | 37.29362 | 6897 ft | 317 kts | 58° |
| 2026-05-06 17:42 | 55.20518 | 37.32688 | 6675 ft | 315 kts | 54° |
| 2026-05-06 17:43 | 55.22032 | 37.35384 | 6434 ft | 307 kts | 28° |
| 2026-05-06 17:43 | 55.23949 | 37.36662 | 6191 ft | 298 kts | 4° |
| 2026-05-06 17:43 | 55.26018 | 37.36858 | 5952 ft | 296 kts | 357° |
| 2026-05-06 17:43 | 55.28051 | 37.36906 | 5706 ft | 294 kts | 357° |
| 2026-05-06 17:44 | 55.30073 | 37.36978 | 5458 ft | 288 kts | 359° |
| 2026-05-06 17:44 | 55.32050 | 37.37351 | 5208 ft | 285 kts | 6° |
| 2026-05-06 17:44 | 55.33951 | 37.38081 | 5029 ft | 278 kts | 11° |
| 2026-05-06 17:44 | 55.35801 | 37.38948 | 4907 ft | 268 kts | 12° |
| 2026-05-06 17:45 | 55.37543 | 37.39794 | 4788 ft | 258 kts | 11° |
| 2026-05-06 17:45 | 55.39265 | 37.40633 | 4691 ft | 250 kts | 11° |
| 2026-05-06 17:45 | 55.40898 | 37.41422 | 4588 ft | 241 kts | 11° |
| 2026-05-06 17:45 | 55.42479 | 37.42184 | 4495 ft | 238 kts | 11° |
| 2026-05-06 17:46 | 55.44093 | 37.42958 | 4397 ft | 238 kts | 11° |
| 2026-05-06 17:46 | 55.45708 | 37.43731 | 4301 ft | 237 kts | 11° |
| 2026-05-06 17:46 | 55.47294 | 37.44492 | 4204 ft | 237 kts | 11° |
| 2026-05-06 17:46 | 55.48880 | 37.45253 | 4107 ft | 236 kts | 11° |
| 2026-05-06 17:47 | 55.50457 | 37.46011 | 4005 ft | 232 kts | 11° |
| 2026-05-06 17:47 | 55.51994 | 37.46755 | 3904 ft | 224 kts | 11° |
| 2026-05-06 17:47 | 55.53456 | 37.47465 | 3806 ft | 216 kts | 11° |
| 2026-05-06 17:47 | 55.54890 | 37.48161 | 3710 ft | 212 kts | 11° |
| 2026-05-06 17:48 | 55.56324 | 37.48854 | 3488 ft | 213 kts | 11° |
| 2026-05-06 17:48 | 55.57733 | 37.49535 | 3262 ft | 212 kts | 12° |
| 2026-05-06 17:48 | 55.59155 | 37.50020 | 3027 ft | 203 kts | 356° |
| 2026-05-06 17:48 | 55.60443 | 37.49487 | 2773 ft | 187 kts | 337° |
| 2026-05-06 17:49 | 55.61644 | 37.48642 | 2449 ft | 182 kts | 335° |
| 2026-05-06 17:49 | 55.62781 | 37.47687 | 2186 ft | 177 kts | 322° |
| 2026-05-06 17:49 | 55.63322 | 37.45869 | 1954 ft | 171 kts | 275° |
| 2026-05-06 17:49 | 55.63119 | 37.43880 | 1847 ft | 161 kts | 256° |
| 2026-05-06 17:50 | 55.62767 | 37.42160 | 1835 ft | 140 kts | 253° |
| 2026-05-06 17:50 | 55.62400 | 37.40554 | 1840 ft | 139 kts | 253° |
| 2026-05-06 17:50 | 55.62041 | 37.38977 | 1843 ft | 138 kts | 254° |
| 2026-05-06 17:50 | 55.61684 | 37.37393 | 1667 ft | 137 kts | 253° |
| 2026-05-06 17:51 | 55.61336 | 37.35835 | 1497 ft | 136 kts | 253° |
| 2026-05-06 17:51 | 55.60977 | 37.34295 | 1323 ft | 137 kts | 252° |
| 2026-05-06 17:51 | 55.60625 | 37.32736 | 1157 ft | 136 kts | 253° |
| 2026-05-06 17:51 | 55.60276 | 37.31160 | 981 ft | 135 kts | 252° |
| 2026-05-06 17:52 | 55.59937 | 37.29633 | 808 ft | 135 kts | 252° |
| 2026-05-06 17:52 | 55.59598 | 37.28108 | 700 ft | 127 kts | 251° |
| 2026-05-06 17:52 | 55.59326 | 37.26878 | 695 ft | 81 kts | 249° |
| 2026-05-06 17:52 | 55.59184 | 37.26260 | 695 ft | 30 kts | 247° |
| 2026-05-06 17:53 | 55.59105 | 37.25913 | 695 ft | 30 kts | 249° |
| 2026-05-06 17:53 | 55.59034 | 37.25560 | 695 ft | 31 kts | 254° |
| 2026-05-06 17:53 | 55.59024 | 37.25225 | 695 ft | 24 kts | 277° |
| 2026-05-06 17:53 | 55.59058 | 37.25053 | 695 ft | 7 kts | 322° |
| 2026-05-06 17:54 | 55.59063 | 37.25048 | 695 ft | 0 kts | 329° |
| 2026-05-06 17:54 | 55.59075 | 37.25037 | 695 ft | 12 kts | 335° |
| 2026-05-06 17:55 | 55.59146 | 37.25088 | 695 ft | 7 kts | 72° |
| 2026-05-06 17:55 | 55.59170 | 37.25181 | 695 ft | 9 kts | 63° |
| 2026-05-06 17:55 | 55.59204 | 37.25317 | 695 ft | 16 kts | 69° |
| 2026-05-06 17:55 | 55.59248 | 37.25518 | 695 ft | 18 kts | 69° |
| 2026-05-06 17:56 | 55.59301 | 37.25759 | 695 ft | 25 kts | 69° |
| 2026-05-06 17:56 | 55.59355 | 37.26003 | 695 ft | 17 kts | 68° |
| 2026-05-06 17:56 | 55.59403 | 37.26217 | 695 ft | 19 kts | 68° |
| 2026-05-06 17:56 | 55.59457 | 37.26457 | 695 ft | 22 kts | 68° |
| 2026-05-06 17:57 | 55.59512 | 37.26704 | 695 ft | 21 kts | 67° |
| 2026-05-06 17:57 | 55.59595 | 37.26929 | 695 ft | 23 kts | 45° |
| 2026-05-06 17:57 | 55.59712 | 37.27141 | 695 ft | 25 kts | 45° |
| 2026-05-06 17:57 | 55.59835 | 37.27372 | 695 ft | 25 kts | 46° |
| 2026-05-06 17:58 | 55.59952 | 37.27604 | 694 ft | 24 kts | 54° |
| 2026-05-06 17:58 | 55.60028 | 37.27742 | 694 ft | 13 kts | 37° |
| 2026-05-06 17:58 | 55.60101 | 37.27861 | 695 ft | 8 kts | 38° |
| 2026-05-06 17:58 | 55.60159 | 37.27865 | 694 ft | 9 kts | 343° |
| 2026-05-06 17:59 | 55.60260 | 37.27832 | 694 ft | 16 kts | 0° |
| 2026-05-06 17:59 | 55.60321 | 37.27845 | 694 ft | 3 kts | 8° |
| 2026-05-06 17:59 | 55.60355 | 37.27854 | 694 ft | 5 kts | 8° |
| 2026-05-06 17:59 | 55.60382 | 37.27862 | 694 ft | 0 kts | 12° |
| 2026-05-06 18:00 | 55.60394 | 37.27867 | 694 ft | 2 kts | 14° |
| 2026-05-06 18:00 | 55.60414 | 37.27890 | 694 ft | 4 kts | 42° |
| 2026-05-06 18:00 | 55.60443 | 37.27938 | 694 ft | 7 kts | 43° |
| 2026-05-06 18:00 | 55.60482 | 37.28006 | 694 ft | 3 kts | 49° |
| 2026-05-06 18:01 | 55.60488 | 37.28063 | 694 ft | 2 kts | 108° |
| 2026-05-06 18:01 | 55.60479 | 37.28082 | 694 ft | 1 kts | 154° |
| 2026-05-06 18:01 | 55.60458 | 37.28095 | 694 ft | 4 kts | 159° |
| 2026-05-06 18:01 | 55.60428 | 37.28117 | 694 ft | 3 kts | 156° |
| 2026-05-06 18:02 | 55.60413 | 37.28128 | 694 ft | 1 kts | 156° |
| 2026-05-06 18:02 | 55.60412 | 37.28130 | 694 ft | 0 kts | 156° |